Time;durP1;ratioP1;P1;durP2;ratioP2;P2;SDS_P1;SDS_P2;PMS_P1;PMS_P2;Temp;Humidity;BMP_temperature;BMP_pressure;BME280_temperature;BME280_humidity;BME280_pressure;Samples;Min_cycle;Max_cycle;Signal;HPM_P1;HPM_P2
2023/09/10 00:00:36;;;;;;;11.27;10.27;;;;;25.10;100665.00;;;;2071877;28;20217;-66
2023/09/10 00:01:37;;;;;;;12.20;11.10;;;;;25.10;100660.00;;;;2081095;28;20547;-66
2023/09/10 00:02:37;;;;;;;12.70;11.50;;;;;25.10;100666.00;;;;2091008;28;20213;-66
2023/09/10 00:03:38;;;;;;;10.90;10.00;;;;;25.10;100666.00;;;;2092699;28;20354;-66
2023/09/10 00:04:38;;;;;;;11.40;10.30;;;;;25.10;100666.00;;;;2077002;28;20224;-66
2023/09/10 00:05:38;;;;;;;11.77;10.67;;;;;25.10;100663.00;;;;2084608;28;20222;-66
2023/09/10 00:06:39;;;;;;;11.90;10.80;;;;;25.10;100667.00;;;;2085566;28;20212;-66
2023/09/10 00:07:39;;;;;;;12.03;10.93;;;;;25.10;100669.00;;;;2081943;28;20237;-66
2023/09/10 00:08:40;;;;;;;11.90;10.80;;;;;25.10;100668.00;;;;2082384;28;20218;-66
2023/09/10 00:09:40;;;;;;;11.63;10.63;;;;;25.10;100668.00;;;;2085346;28;20220;-66
2023/09/10 00:10:41;;;;;;;12.27;11.17;;;;;25.10;100667.00;;;;2074891;28;20221;-66
2023/09/10 00:11:42;;;;;;;12.00;10.90;;;;;25.10;100671.00;;;;2087172;28;20213;-66
2023/09/10 00:12:42;;;;;;;12.27;11.27;;;;;25.10;100670.00;;;;2092084;28;20789;-66
2023/09/10 00:13:43;;;;;;;11.80;10.63;;;;;25.10;100667.00;;;;2090698;28;20743;-66
2023/09/10 00:14:43;;;;;;;11.97;10.87;;;;;25.10;100664.00;;;;2094505;28;20642;-66
2023/09/10 00:15:43;;;;;;;11.30;10.40;;;;;25.10;100668.00;;;;2070863;28;20602;-66
2023/09/10 00:16:44;;;;;;;11.47;10.37;;;;;25.10;100666.00;;;;2084339;28;20557;-66
2023/09/10 00:17:44;;;;;;;11.27;10.27;;;;;25.10;100669.00;;;;2090576;28;20212;-66
2023/09/10 00:18:45;;;;;;;11.77;10.70;;;;;25.10;100671.00;;;;2092198;28;20212;-66
2023/09/10 00:19:45;;;;;;;10.73;9.80;;;;;25.10;100671.00;;;;2096842;28;20322;-66
2023/09/10 00:20:46;;;;;;;11.37;10.37;;;;;25.10;100660.00;;;;2078782;28;20212;-66
2023/09/10 00:21:46;;;;;;;12.20;11.00;;;;;25.10;100671.00;;;;2093166;28;20212;-66
2023/09/10 00:22:47;;;;;;;11.20;10.23;;;;;25.10;100668.00;;;;2091880;28;20451;-66
2023/09/10 00:23:47;;;;;;;10.60;9.60;;;;;25.10;100672.00;;;;2086981;28;20229;-66
2023/09/10 00:24:47;;;;;;;11.43;10.33;;;;;25.10;100661.00;;;;2096404;28;20220;-66
2023/09/10 00:25:48;;;;;;;12.10;11.00;;;;;25.10;100670.00;;;;2079872;28;20280;-66
2023/09/10 00:26:48;;;;;;;11.13;10.13;;;;;25.10;100660.00;;;;2088536;28;20212;-66
2023/09/10 00:27:48;;;;;;;11.30;10.33;;;;;25.10;100667.00;;;;2087426;28;20212;-66
2023/09/10 00:28:49;;;;;;;11.37;10.30;;;;;25.10;100666.00;;;;2088402;28;20204;-66
2023/09/10 00:29:50;;;;;;;11.80;10.80;;;;;25.10;100657.00;;;;2092060;28;20209;-66
2023/09/10 00:30:53;;;;;;;11.13;10.13;;;;;25.10;100659.00;;;;2078919;28;20528;-67
2023/09/10 00:31:54;;;;;;;11.77;10.83;;;;;25.10;100665.00;;;;2084332;28;20217;-67
2023/09/10 00:32:54;;;;;;;11.50;10.50;;;;;25.10;100655.00;;;;2087133;28;20943;-67
2023/09/10 00:33:55;;;;;;;11.57;10.63;;;;;25.10;100663.00;;;;2086866;28;20585;-67
2023/09/10 00:34:55;;;;;;;12.30;11.20;;;;;25.10;100649.00;;;;2086696;28;20216;-67
2023/09/10 00:35:56;;;;;;;11.63;10.60;;;;;25.10;100657.00;;;;2057411;28;20324;-67
2023/09/10 00:36:57;;;;;;;11.10;10.10;;;;;25.10;100656.00;;;;2076819;28;20225;-67
2023/09/10 00:37:57;;;;;;;11.07;10.07;;;;;25.10;100658.00;;;;2088621;28;20808;-67
2023/09/10 00:38:57;;;;;;;11.57;10.50;;;;;25.10;100647.00;;;;2083998;28;20680;-67
2023/09/10 00:39:58;;;;;;;11.50;10.50;;;;;25.10;100661.00;;;;2076958;28;20248;-67
2023/09/10 00:40:58;;;;;;;11.47;10.37;;;;;25.10;100658.00;;;;2069855;28;20233;-67
2023/09/10 00:41:58;;;;;;;10.53;9.53;;;;;25.10;100653.00;;;;2085315;28;20205;-67
2023/09/10 00:42:59;;;;;;;10.80;9.90;;;;;25.10;100659.00;;;;2075113;28;20252;-67
2023/09/10 00:43:59;;;;;;;11.70;10.70;;;;;25.10;100653.00;;;;2074334;28;20237;-67
2023/09/10 00:44:59;;;;;;;11.30;10.33;;;;;25.10;100662.00;;;;2089795;28;20209;-67
2023/09/10 00:46:00;;;;;;;11.10;10.20;;;;;25.10;100653.00;;;;2078903;28;20338;-67
2023/09/10 00:47:00;;;;;;;11.20;10.20;;;;;25.10;100659.00;;;;2090661;28;20416;-67
2023/09/10 00:48:00;;;;;;;11.07;10.07;;;;;25.10;100655.00;;;;2090996;28;20216;-67
2023/09/10 00:49:01;;;;;;;11.10;10.03;;;;;25.00;100648.00;;;;2089651;28;20209;-67
2023/09/10 00:50:01;;;;;;;11.33;10.33;;;;;25.10;100648.00;;;;2091178;28;20213;-67
2023/09/10 00:51:01;;;;;;;10.40;9.40;;;;;25.10;100657.00;;;;2073707;28;20267;-67
2023/09/10 00:52:02;;;;;;;11.17;10.17;;;;;25.10;100610.00;;;;2064487;28;20229;-67
2023/09/10 00:53:03;;;;;;;10.97;9.97;;;;;25.10;100653.00;;;;2067484;28;20219;-67
2023/09/10 00:54:03;;;;;;;10.23;9.40;;;;;25.10;100648.00;;;;2068766;28;20220;-67
2023/09/10 00:55:04;;;;;;;10.63;9.73;;;;;25.10;100650.00;;;;2084880;28;20252;-67
2023/09/10 00:56:05;;;;;;;11.13;10.15;;;;;25.10;100642.00;;;;2062678;28;20240;-67
2023/09/10 00:57:05;;;;;;;11.60;10.60;;;;;25.10;100649.00;;;;2059479;28;20700;-67
2023/09/10 00:58:05;;;;;;;11.53;10.33;;;;;25.00;100650.00;;;;2066509;28;20756;-67
2023/09/10 00:59:07;;;;;;;10.67;9.77;;;;;25.10;100649.00;;;;2084541;28;20228;-67
2023/09/10 01:00:08;;;;;;;10.40;9.50;;;;;25.10;100653.00;;;;2078358;28;20214;-67
2023/09/10 01:01:08;;;;;;;11.00;10.00;;;;;25.10;100653.00;;;;2065169;28;20476;-67
2023/09/10 01:02:09;;;;;;;10.93;10.03;;;;;25.10;100647.00;;;;2069384;28;20563;-67
2023/09/10 01:03:10;;;;;;;11.00;10.00;;;;;25.10;100612.00;;;;2063518;28;20230;-67
2023/09/10 01:04:10;;;;;;;9.67;8.87;;;;;25.10;100653.00;;;;2078930;28;20201;-67
2023/09/10 01:05:11;;;;;;;10.10;9.20;;;;;25.10;100652.00;;;;2086024;28;20209;-67
2023/09/10 01:06:11;;;;;;;11.17;10.17;;;;;25.10;100645.00;;;;2070051;28;20698;-67
2023/09/10 01:07:12;;;;;;;9.97;9.07;;;;;25.10;100596.00;;;;2085176;28;20509;-67
2023/09/10 01:08:12;;;;;;;11.10;10.10;;;;;25.10;100645.00;;;;2072664;28;20253;-67
2023/09/10 01:09:12;;;;;;;10.07;9.27;;;;;25.10;100647.00;;;;2079339;28;20228;-67
2023/09/10 01:10:13;;;;;;;10.43;9.53;;;;;25.10;100653.00;;;;2083614;28;20205;-67
2023/09/10 01:11:19;;;;;;;10.27;9.37;;;;;25.10;100645.00;;;;2068645;28;20295;-67
2023/09/10 01:12:21;;;;;;;10.53;9.60;;;;;25.10;100650.00;;;;2078782;28;20224;-67
2023/09/10 01:13:28;;;;;;;10.60;9.70;;;;;25.00;100650.00;;;;2078597;28;20475;-67
2023/09/10 01:15:10;;;;;;;10.70;9.70;;;;;25.10;100649.00;;;;2077612;28;20467;-67
2023/09/10 01:16:37;;;;;;;10.20;9.30;;;;;25.10;100541.00;;;;2077283;28;20551;-67
2023/09/10 01:17:52;;;;;;;9.60;8.80;;;;;25.10;100644.00;;;;2086754;28;20622;-67
2023/09/10 01:18:56;;;;;;;10.50;9.57;;;;;25.10;100644.00;;;;2075595;28;20466;-67
2023/09/10 01:20:00;;;;;;;10.25;9.35;;;;;25.10;100642.00;;;;2066310;28;20221;-67
2023/09/10 01:21:45;;;;;;;10.60;9.70;;;;;25.10;100646.00;;;;2062734;28;20300;-67
2023/09/10 01:23:04;;;;;;;10.37;9.47;;;;;25.10;100647.00;;;;2050537;28;20527;-67
2023/09/10 01:24:12;;;;;;;9.70;8.83;;;;;25.00;100640.00;;;;2060068;28;20439;-67
2023/09/10 01:25:12;;;;;;;10.33;9.43;;;;;25.10;100604.00;;;;2083998;28;20482;-67
2023/09/10 01:26:13;;;;;;;10.40;9.50;;;;;25.10;100644.00;;;;2073537;28;20510;-67
2023/09/10 01:27:14;;;;;;;10.50;9.60;;;;;25.00;100646.00;;;;2086436;28;20729;-67
2023/09/10 01:28:15;;;;;;;10.90;10.00;;;;;25.00;100645.00;;;;2092140;28;20699;-67
2023/09/10 01:29:15;;;;;;;10.23;9.43;;;;;25.10;100643.00;;;;2088213;28;20212;-67
2023/09/10 01:30:15;;;;;;;10.60;9.70;;;;;25.10;100644.00;;;;2076403;28;20722;-67
2023/09/10 01:31:17;;;;;;;10.77;9.87;;;;;25.00;100645.00;;;;2063404;28;20715;-67
2023/09/10 01:32:23;;;;;;;10.40;9.50;;;;;25.10;100638.00;;;;2085278;28;20213;-67
2023/09/10 01:33:29;;;;;;;10.80;9.80;;;;;25.00;100642.00;;;;2078014;28;20500;-67
2023/09/10 01:34:32;;;;;;;10.93;9.93;;;;;25.10;100644.00;;;;2084430;28;20452;-67
2023/09/10 01:35:47;;;;;;;10.50;9.60;;;;;25.00;100640.00;;;;2071525;28;20595;-67
2023/09/10 01:36:51;;;;;;;10.90;10.00;;;;;25.00;100638.00;;;;2079416;28;20539;-67
2023/09/10 01:38:23;;;;;;;10.93;10.00;;;;;25.00;100636.00;;;;2083927;28;20221;-67
2023/09/10 01:39:25;;;;;;;10.10;9.20;;;;;25.00;100644.00;;;;2066843;28;20569;-67
2023/09/10 01:40:39;;;;;;;10.13;9.20;;;;;25.10;100640.00;;;;2075359;28;20445;-67
2023/09/10 01:41:40;;;;;;;10.10;9.20;;;;;25.00;100646.00;;;;2065567;28;20561;-67
2023/09/10 01:42:40;;;;;;;10.83;9.90;;;;;25.10;100643.00;;;;2078908;28;20444;-67
2023/09/10 01:43:41;;;;;;;10.17;9.30;;;;;25.10;100644.00;;;;2080223;28;20770;-67
2023/09/10 01:44:41;;;;;;;11.20;10.20;;;;;25.10;100648.00;;;;2074139;28;20603;-67
2023/09/10 01:45:41;;;;;;;9.27;8.47;;;;;25.10;100642.00;;;;2071583;28;20616;-67
2023/09/10 01:46:42;;;;;;;10.33;9.53;;;;;25.00;100644.00;;;;2086586;28;20683;-67
2023/09/10 01:47:42;;;;;;;10.47;9.50;;;;;25.10;100638.00;;;;2079021;28;20707;-67
2023/09/10 01:48:42;;;;;;;10.37;9.53;;;;;25.00;100638.00;;;;2082825;28;20584;-67
2023/09/10 01:49:43;;;;;;;10.60;9.60;;;;;25.10;100641.00;;;;2070308;28;20614;-67
2023/09/10 01:50:43;;;;;;;9.90;9.00;;;;;25.00;100642.00;;;;2055274;28;20207;-67
2023/09/10 01:51:44;;;;;;;11.40;10.40;;;;;25.00;100647.00;;;;2089623;28;20216;-67
2023/09/10 01:52:44;;;;;;;10.30;9.40;;;;;25.10;100646.00;;;;2090481;28;20204;-67
2023/09/10 01:53:46;;;;;;;9.70;8.90;;;;;25.00;100646.00;;;;2084387;28;20205;-67
2023/09/10 01:54:46;;;;;;;9.73;8.93;;;;;25.00;100642.00;;;;2081373;28;20217;-67
2023/09/10 01:55:47;;;;;;;9.57;8.70;;;;;25.10;100636.00;;;;2081040;28;20543;-67
2023/09/10 01:56:47;;;;;;;9.93;9.13;;;;;25.00;100643.00;;;;2093491;28;20219;-67
2023/09/10 01:57:47;;;;;;;9.50;8.70;;;;;25.10;100641.00;;;;2091144;28;20223;-67
2023/09/10 01:58:48;;;;;;;9.77;8.87;;;;;25.10;100642.00;;;;2079511;28;20206;-67
2023/09/10 01:59:48;;;;;;;9.70;8.87;;;;;25.00;100586.00;;;;2080793;28;20227;-67
2023/09/10 02:00:48;;;;;;;10.10;9.20;;;;;25.00;100642.00;;;;2080214;28;20223;-67
2023/09/10 02:01:49;;;;;;;9.40;8.60;;;;;25.10;100640.00;;;;2089770;28;20234;-67
2023/09/10 02:02:49;;;;;;;9.57;8.67;;;;;25.00;100651.00;;;;2087565;28;20205;-67
2023/09/10 02:03:49;;;;;;;9.80;9.00;;;;;25.00;100648.00;;;;2092589;28;20204;-67
2023/09/10 02:04:50;;;;;;;10.57;9.77;;;;;25.10;100636.00;;;;2089079;28;20201;-67
2023/09/10 02:05:50;;;;;;;10.10;9.20;;;;;25.10;100645.00;;;;2073178;28;20240;-67
2023/09/10 02:06:50;;;;;;;9.37;8.57;;;;;25.00;100643.00;;;;2069577;28;20897;-67
2023/09/10 02:07:51;;;;;;;9.87;8.97;;;;;25.00;100645.00;;;;2070288;28;20214;-67
2023/09/10 02:08:51;;;;;;;10.67;9.73;;;;;25.00;100653.00;;;;2068892;28;20233;-67
2023/09/10 02:09:52;;;;;;;9.57;8.77;;;;;25.00;100647.00;;;;2073255;28;20268;-67
2023/09/10 02:10:52;;;;;;;10.57;9.67;;;;;25.00;100650.00;;;;2078672;28;20682;-67
2023/09/10 02:11:52;;;;;;;9.73;8.93;;;;;25.00;100640.00;;;;2088936;28;20201;-67
2023/09/10 02:12:52;;;;;;;10.90;9.90;;;;;25.00;100649.00;;;;2090330;28;21722;-67
2023/09/10 02:13:53;;;;;;;9.43;8.63;;;;;25.00;100640.00;;;;2092220;28;20255;-67
2023/09/10 02:14:57;;;;;;;9.30;8.40;;;;;25.00;100647.00;;;;2091424;28;20220;-67
2023/09/10 02:15:57;;;;;;;9.27;8.57;;;;;25.00;100643.00;;;;2080935;28;20466;-67
2023/09/10 02:16:58;;;;;;;10.67;9.77;;;;;25.00;100644.00;;;;2090700;28;20440;-67
2023/09/10 02:17:58;;;;;;;10.17;9.27;;;;;25.00;100642.00;;;;2084322;28;20219;-67
2023/09/10 02:18:58;;;;;;;10.30;9.47;;;;;25.00;100645.00;;;;2091699;28;20215;-67
2023/09/10 02:19:59;;;;;;;9.70;8.90;;;;;25.00;100643.00;;;;2082668;28;20689;-67
2023/09/10 02:21:09;;;;;;;10.40;9.50;;;;;25.00;100643.00;;;;2089915;22;20258;-67
2023/09/10 02:22:10;;;;;;;9.48;8.68;;;;;25.00;100650.00;;;;2073813;28;20225;-67
2023/09/10 02:23:10;;;;;;;9.83;9.03;;;;;25.00;100649.00;;;;2073041;28;20602;-67
2023/09/10 02:24:10;;;;;;;10.07;9.17;;;;;25.00;100654.00;;;;2086000;28;20253;-67
2023/09/10 02:25:11;;;;;;;9.20;8.40;;;;;25.00;100652.00;;;;2081668;28;20217;-67
2023/09/10 02:26:11;;;;;;;9.60;8.70;;;;;25.00;100651.00;;;;2071387;28;20305;-67
2023/09/10 02:27:11;;;;;;;9.87;9.07;;;;;25.00;100650.00;;;;2090803;28;20212;-67
2023/09/10 02:28:12;;;;;;;10.13;9.33;;;;;25.00;100669.00;;;;2085891;28;20208;-67
2023/09/10 02:29:12;;;;;;;9.33;8.50;;;;;25.00;100657.00;;;;2082234;28;20213;-67
2023/09/10 02:30:12;;;;;;;10.00;9.20;;;;;25.00;100654.00;;;;2095217;28;20281;-67
2023/09/10 02:31:15;;;;;;;9.03;8.33;;;;;25.00;100655.00;;;;2084708;28;20231;-67
2023/09/10 02:32:16;;;;;;;9.40;8.60;;;;;25.00;100646.00;;;;2098444;28;20208;-67
2023/09/10 02:33:16;;;;;;;9.73;8.93;;;;;25.00;100655.00;;;;2095520;28;20227;-67
2023/09/10 02:34:17;;;;;;;9.47;8.70;;;;;25.00;100652.00;;;;2101735;28;20199;-67
2023/09/10 02:35:17;;;;;;;10.43;9.53;;;;;25.00;100650.00;;;;2096762;28;20665;-67
2023/09/10 02:36:17;;;;;;;9.03;8.23;;;;;25.00;100652.00;;;;2086083;28;20681;-67
2023/09/10 02:37:18;;;;;;;9.50;8.70;;;;;25.00;100655.00;;;;2101690;28;20207;-67
2023/09/10 02:38:18;;;;;;;9.73;8.83;;;;;25.00;100652.00;;;;2095601;28;20196;-67
2023/09/10 02:39:18;;;;;;;9.83;9.03;;;;;25.00;100655.00;;;;2095902;28;20200;-67
2023/09/10 02:40:19;;;;;;;9.27;8.47;;;;;25.00;100657.00;;;;2095044;28;20254;-67
2023/09/10 02:41:19;;;;;;;8.87;8.17;;;;;25.00;100655.00;;;;2086608;28;20208;-67
2023/09/10 02:42:19;;;;;;;8.53;7.83;;;;;25.00;100657.00;;;;2102052;28;20252;-67
2023/09/10 02:43:20;;;;;;;9.00;8.20;;;;;25.00;100659.00;;;;2095501;28;20212;-67
2023/09/10 02:44:20;;;;;;;9.43;8.63;;;;;25.00;100658.00;;;;2096116;28;20263;-67
2023/09/10 02:45:20;;;;;;;9.80;9.00;;;;;25.00;100655.00;;;;2093981;28;20208;-67
2023/09/10 02:46:20;;;;;;;9.50;8.70;;;;;25.00;100656.00;;;;2086004;28;20777;-67
2023/09/10 02:47:21;;;;;;;9.47;8.50;;;;;25.00;100656.00;;;;2094040;28;20561;-67
2023/09/10 02:48:21;;;;;;;10.23;9.43;;;;;25.00;100662.00;;;;2099273;28;20234;-67
2023/09/10 02:49:21;;;;;;;9.90;9.00;;;;;25.00;100660.00;;;;2096114;28;20212;-67
2023/09/10 02:50:22;;;;;;;9.50;8.70;;;;;25.00;100664.00;;;;2095304;28;20243;-67
2023/09/10 02:51:22;;;;;;;10.10;9.10;;;;;25.00;100666.00;;;;2085516;28;20329;-67
2023/09/10 02:52:26;;;;;;;9.07;8.27;;;;;25.00;100666.00;;;;2095190;28;20208;-67
2023/09/10 02:53:26;;;;;;;9.40;8.60;;;;;25.00;100667.00;;;;2095434;28;20764;-67
2023/09/10 02:54:28;;;;;;;9.20;8.40;;;;;25.00;100665.00;;;;2092362;28;20500;-67
2023/09/10 02:55:28;;;;;;;9.55;8.85;;;;;25.00;100662.00;;;;2087018;28;24875;-67
2023/09/10 02:56:28;;;;;;;9.57;8.77;;;;;25.00;100665.00;;;;2080077;28;20220;-67
2023/09/10 02:57:29;;;;;;;9.77;8.93;;;;;25.00;100664.00;;;;2095089;28;20220;-67
2023/09/10 02:58:29;;;;;;;8.70;8.00;;;;;25.00;100657.00;;;;2099229;28;20273;-67
2023/09/10 02:59:30;;;;;;;9.47;8.57;;;;;25.00;100664.00;;;;2094742;28;20219;-67
2023/09/10 03:00:30;;;;;;;9.77;8.97;;;;;25.00;100675.00;;;;2085733;28;20584;-67
2023/09/10 03:01:31;;;;;;;9.70;8.80;;;;;25.00;100654.00;;;;2098810;28;20696;-67
2023/09/10 03:02:31;;;;;;;9.60;8.80;;;;;25.00;100657.00;;;;2095973;28;20223;-67
2023/09/10 03:03:32;;;;;;;10.30;9.43;;;;;25.00;100670.00;;;;2096166;28;20212;-67
2023/09/10 03:04:32;;;;;;;9.30;8.50;;;;;25.00;100668.00;;;;2092008;28;20304;-67
2023/09/10 03:05:35;;;;;;;8.87;8.17;;;;;25.00;100666.00;;;;2085936;28;20446;-67
2023/09/10 03:06:36;;;;;;;8.97;8.27;;;;;25.00;100669.00;;;;2088062;28;20233;-67
2023/09/10 03:07:36;;;;;;;9.60;8.77;;;;;25.00;100655.00;;;;2095335;28;20458;-67
2023/09/10 03:08:36;;;;;;;8.87;8.13;;;;;25.00;100657.00;;;;2093716;28;20594;-67
2023/09/10 03:09:37;;;;;;;9.63;8.73;;;;;25.00;100673.00;;;;2095254;28;20585;-67
2023/09/10 03:10:37;;;;;;;8.80;8.10;;;;;25.00;100672.00;;;;2084851;28;20282;-67
2023/09/10 03:11:38;;;;;;;8.80;8.10;;;;;25.00;100663.00;;;;2095216;28;20216;-67
2023/09/10 03:12:38;;;;;;;9.15;8.23;;;;;25.00;100664.00;;;;2084461;28;20215;-67
2023/09/10 03:13:39;;;;;;;9.60;8.80;;;;;25.00;100674.00;;;;2090732;28;20221;-67
2023/09/10 03:14:39;;;;;;;8.97;8.23;;;;;25.00;100666.00;;;;2077941;28;20310;-67
2023/09/10 03:15:39;;;;;;;9.03;8.23;;;;;25.00;100674.00;;;;2082194;28;20246;-67
2023/09/10 03:16:40;;;;;;;10.17;9.30;;;;;25.00;100665.00;;;;2087853;28;20213;-67
2023/09/10 03:17:40;;;;;;;9.17;8.37;;;;;25.00;100666.00;;;;2095700;28;20220;-67
2023/09/10 03:18:41;;;;;;;9.33;8.53;;;;;25.00;100676.00;;;;2094208;28;20729;-67
2023/09/10 03:19:41;;;;;;;9.00;8.30;;;;;25.00;100678.00;;;;2095939;28;20555;-67
2023/09/10 03:20:41;;;;;;;9.70;8.90;;;;;25.00;100675.00;;;;2084599;28;20230;-67
2023/09/10 03:21:42;;;;;;;9.50;8.70;;;;;25.00;100671.00;;;;2097015;28;20208;-67
2023/09/10 03:22:42;;;;;;;9.27;8.53;;;;;25.00;100668.00;;;;2096779;28;20289;-67
2023/09/10 03:23:42;;;;;;;8.83;8.03;;;;;25.00;100677.00;;;;2099027;28;20211;-67
2023/09/10 03:24:43;;;;;;;9.40;8.60;;;;;25.00;100670.00;;;;2098533;28;20217;-67
2023/09/10 03:25:43;;;;;;;9.13;8.23;;;;;25.00;100666.00;;;;2087857;28;20216;-67
2023/09/10 03:26:43;;;;;;;8.83;8.13;;;;;25.00;100662.00;;;;2097295;28;20577;-67
2023/09/10 03:27:43;;;;;;;8.90;8.10;;;;;25.00;100659.00;;;;2093830;28;20697;-67
2023/09/10 03:28:44;;;;;;;8.93;8.13;;;;;25.00;100670.00;;;;2097238;28;20574;-67
2023/09/10 03:29:44;;;;;;;9.03;8.23;;;;;25.00;100665.00;;;;2097664;28;20672;-67
2023/09/10 03:30:44;;;;;;;9.43;8.63;;;;;25.00;100663.00;;;;2084907;28;20788;-67
2023/09/10 03:31:45;;;;;;;9.70;8.90;;;;;25.00;100664.00;;;;2080481;28;20227;-67
2023/09/10 03:32:49;;;;;;;8.83;8.03;;;;;25.00;100665.00;;;;2087307;28;20293;-67
2023/09/10 03:33:49;;;;;;;9.23;8.43;;;;;25.00;100663.00;;;;2093682;28;20265;-67
2023/09/10 03:34:49;;;;;;;8.80;8.10;;;;;25.00;100661.00;;;;2096749;28;21006;-67
2023/09/10 03:35:50;;;;;;;8.57;7.87;;;;;25.00;100662.00;;;;2086044;28;20231;-67
2023/09/10 03:36:50;;;;;;;9.10;8.40;;;;;25.00;100660.00;;;;2097732;28;20212;-67
2023/09/10 03:37:50;;;;;;;9.20;8.40;;;;;25.00;100656.00;;;;2094245;28;20258;-67
2023/09/10 03:38:51;;;;;;;9.03;8.33;;;;;25.00;100657.00;;;;2096802;28;20238;-67
2023/09/10 03:39:52;;;;;;;8.52;7.80;;;;;25.00;100655.00;;;;2096387;28;20216;-67
2023/09/10 03:40:52;;;;;;;8.60;7.90;;;;;25.00;100655.00;;;;2086537;28;20224;-67
2023/09/10 03:41:53;;;;;;;9.00;8.23;;;;;25.00;100653.00;;;;2094933;28;20216;-67
2023/09/10 03:42:53;;;;;;;9.70;8.90;;;;;25.00;100652.00;;;;2099553;28;20276;-67
2023/09/10 03:43:55;;;;;;;8.83;8.03;;;;;25.00;100656.00;;;;2096892;28;20232;-67
2023/09/10 03:44:55;;;;;;;9.50;8.70;;;;;25.00;100656.00;;;;2097210;28;20296;-67
2023/09/10 03:45:55;;;;;;;8.77;8.07;;;;;25.00;100656.00;;;;2086281;28;20484;-67
2023/09/10 03:46:56;;;;;;;9.03;8.33;;;;;25.00;100657.00;;;;2096334;28;20247;-67
2023/09/10 03:47:56;;;;;;;9.13;8.40;;;;;25.00;100663.00;;;;2096685;28;20253;-67
2023/09/10 03:48:56;;;;;;;8.77;8.00;;;;;25.00;100662.00;;;;2095525;28;20216;-67
2023/09/10 03:49:57;;;;;;;8.53;7.83;;;;;25.00;100663.00;;;;2094706;28;20226;-67
2023/09/10 03:50:57;;;;;;;8.90;8.10;;;;;25.00;100660.00;;;;2083262;28;20216;-67
2023/09/10 03:51:57;;;;;;;8.80;8.00;;;;;25.00;100666.00;;;;2096958;28;20281;-67
2023/09/10 03:52:58;;;;;;;8.43;7.73;;;;;25.00;100668.00;;;;2103341;28;20260;-67
2023/09/10 03:53:58;;;;;;;8.30;7.60;;;;;25.00;100667.00;;;;2097590;28;20220;-67
2023/09/10 03:54:58;;;;;;;8.10;7.40;;;;;25.00;100658.00;;;;2097207;28;20239;-67
2023/09/10 03:55:59;;;;;;;8.53;7.83;;;;;25.00;100671.00;;;;2084798;28;20222;-67
2023/09/10 03:56:59;;;;;;;9.37;8.53;;;;;25.00;100674.00;;;;2096785;28;20212;-67
2023/09/10 03:57:59;;;;;;;8.80;8.10;;;;;25.00;100660.00;;;;2097667;28;20242;-67
2023/09/10 03:59:00;;;;;;;8.87;8.17;;;;;25.00;100662.00;;;;2099035;28;20204;-67
2023/09/10 04:00:00;;;;;;;9.77;8.97;;;;;25.00;100667.00;;;;2099142;28;20258;-67
2023/09/10 04:01:00;;;;;;;9.00;8.20;;;;;25.00;100667.00;;;;2086774;28;20266;-67
2023/09/10 04:02:00;;;;;;;8.73;8.03;;;;;25.00;100665.00;;;;2097651;28;20322;-67
2023/09/10 04:03:02;;;;;;;9.53;8.73;;;;;25.00;100669.00;;;;2096425;28;20624;-66
2023/09/10 04:04:05;;;;;;;8.95;8.25;;;;;24.80;100665.00;;;;2095896;28;20579;-66
2023/09/10 04:05:06;;;;;;;9.35;8.57;;;;;25.00;100667.00;;;;2087256;28;20278;-66
2023/09/10 04:06:06;;;;;;;8.27;7.57;;;;;25.00;100669.00;;;;2075050;28;20235;-66
2023/09/10 04:07:06;;;;;;;9.43;8.47;;;;;24.80;100667.00;;;;2096242;28;20252;-66
2023/09/10 04:08:07;;;;;;;8.43;7.73;;;;;25.00;100674.00;;;;2096893;28;20239;-67
2023/09/10 04:09:07;;;;;;;8.73;8.03;;;;;25.00;100672.00;;;;2096579;28;20224;-67
2023/09/10 04:10:08;;;;;;;8.17;7.53;;;;;25.00;100672.00;;;;2097656;28;20226;-67
2023/09/10 04:11:09;;;;;;;8.80;8.10;;;;;25.00;100672.00;;;;2087061;28;20216;-67
2023/09/10 04:12:09;;;;;;;8.93;8.13;;;;;25.00;100668.00;;;;2096067;28;20553;-67
2023/09/10 04:13:09;;;;;;;8.20;7.60;;;;;25.00;100666.00;;;;2097215;28;20317;-67
2023/09/10 04:14:10;;;;;;;8.70;7.90;;;;;25.00;100664.00;;;;2096269;28;20220;-67
2023/09/10 04:15:10;;;;;;;9.23;8.53;;;;;25.00;100670.00;;;;2098518;28;20216;-67
2023/09/10 04:16:10;;;;;;;8.00;7.40;;;;;25.00;100669.00;;;;2079669;28;20561;-67
2023/09/10 04:17:15;;;;;;;8.40;7.70;;;;;25.00;100669.00;;;;2093250;28;20588;-67
2023/09/10 04:18:16;;;;;;;7.95;7.25;;;;;25.00;100671.00;;;;2093602;28;20227;-67
2023/09/10 04:19:16;;;;;;;9.87;9.00;;;;;25.00;100675.00;;;;2096339;28;20258;-67
2023/09/10 04:20:19;;;;;;;8.73;8.03;;;;;25.00;100665.00;;;;2094604;28;21628;-67
2023/09/10 04:21:20;;;;;;;9.23;8.33;;;;;25.00;100670.00;;;;2075549;28;20227;-67
2023/09/10 04:22:20;;;;;;;8.23;7.60;;;;;25.00;100665.00;;;;2090102;28;20830;-67
2023/09/10 04:23:20;;;;;;;8.37;7.70;;;;;25.00;100665.00;;;;2086591;28;20740;-67
2023/09/10 04:24:21;;;;;;;8.47;7.67;;;;;25.00;100667.00;;;;2101486;28;20234;-67
2023/09/10 04:25:21;;;;;;;8.50;7.80;;;;;25.00;100670.00;;;;2095595;28;20596;-67
2023/09/10 04:26:21;;;;;;;8.63;7.87;;;;;25.00;100665.00;;;;2077518;28;20237;-67
2023/09/10 04:27:22;;;;;;;9.20;8.50;;;;;25.00;100667.00;;;;2095645;28;20227;-67
2023/09/10 04:28:22;;;;;;;8.00;7.40;;;;;25.00;100664.00;;;;2095994;28;20219;-67
2023/09/10 04:29:22;;;;;;;9.10;8.40;;;;;25.00;100659.00;;;;2096772;28;20212;-67
2023/09/10 04:30:23;;;;;;;8.60;7.87;;;;;25.00;100661.00;;;;2097060;28;20291;-67
2023/09/10 04:31:23;;;;;;;8.30;7.60;;;;;25.00;100664.00;;;;2086865;28;20215;-67
2023/09/10 04:32:23;;;;;;;9.00;8.20;;;;;25.00;100662.00;;;;2095263;28;20213;-67
2023/09/10 04:33:24;;;;;;;8.20;7.60;;;;;25.00;100665.00;;;;2096308;28;20223;-67
2023/09/10 04:34:24;;;;;;;9.33;8.60;;;;;25.00;100666.00;;;;2102160;28;20203;-67
2023/09/10 04:35:24;;;;;;;9.30;8.50;;;;;25.00;100663.00;;;;2096639;28;20299;-67
2023/09/10 04:36:25;;;;;;;7.60;7.00;;;;;25.00;100660.00;;;;2086894;28;20273;-67
2023/09/10 04:37:26;;;;;;;8.90;8.20;;;;;25.00;100668.00;;;;2096087;28;20209;-67
2023/09/10 04:38:27;;;;;;;8.27;7.57;;;;;25.00;100660.00;;;;2096430;28;20212;-67
2023/09/10 04:39:27;;;;;;;8.27;7.50;;;;;25.00;100662.00;;;;2092819;28;20483;-67
2023/09/10 04:40:27;;;;;;;7.90;7.30;;;;;25.00;100666.00;;;;2096845;28;20249;-67
2023/09/10 04:41:27;;;;;;;8.03;7.33;;;;;25.00;100673.00;;;;2085696;28;20216;-67
2023/09/10 04:42:28;;;;;;;8.83;8.03;;;;;25.00;100671.00;;;;2096320;28;20273;-67
2023/09/10 04:43:28;;;;;;;9.07;8.37;;;;;25.00;100663.00;;;;2096819;28;20204;-67
2023/09/10 04:44:28;;;;;;;8.30;7.60;;;;;25.00;100672.00;;;;2096171;28;20247;-67
2023/09/10 04:45:29;;;;;;;9.07;8.27;;;;;25.00;100663.00;;;;2091773;28;20203;-67
2023/09/10 04:46:29;;;;;;;8.77;8.07;;;;;25.00;100675.00;;;;2090694;28;20208;-67
2023/09/10 04:47:29;;;;;;;8.50;7.70;;;;;25.00;100671.00;;;;2095794;28;20219;-67
2023/09/10 04:48:30;;;;;;;8.77;8.07;;;;;25.00;100668.00;;;;2096280;28;20215;-67
2023/09/10 04:49:30;;;;;;;8.50;7.80;;;;;25.00;100666.00;;;;2096511;28;20258;-67
2023/09/10 04:50:31;;;;;;;7.70;7.10;;;;;25.00;100671.00;;;;2090418;28;20228;-67
2023/09/10 04:51:31;;;;;;;7.50;6.90;;;;;25.00;100674.00;;;;2094344;28;20220;-68
2023/09/10 04:52:31;;;;;;;7.93;7.23;;;;;25.00;100669.00;;;;2096706;28;20235;-68
2023/09/10 04:53:32;;;;;;;8.70;7.90;;;;;25.00;100670.00;;;;2095820;28;20216;-68
2023/09/10 04:54:32;;;;;;;7.63;7.03;;;;;25.00;100673.00;;;;2096850;28;20290;-68
2023/09/10 04:55:33;;;;;;;7.50;6.90;;;;;25.00;100666.00;;;;2080344;28;20689;-68
2023/09/10 04:56:33;;;;;;;8.30;7.60;;;;;25.00;100671.00;;;;2095240;28;20304;-68
2023/09/10 04:57:33;;;;;;;8.50;7.83;;;;;25.00;100675.00;;;;2094866;28;20222;-68
2023/09/10 04:58:34;;;;;;;7.90;7.27;;;;;25.00;100667.00;;;;2095816;28;20208;-68
2023/09/10 04:59:34;;;;;;;8.23;7.53;;;;;25.00;100676.00;;;;2096863;28;20222;-68
2023/09/10 05:00:39;;;;;;;7.70;7.10;;;;;25.00;100676.00;;;;2085674;28;20220;-68
2023/09/10 05:01:39;;;;;;;7.93;7.23;;;;;25.00;100672.00;;;;2093454;28;20563;-68